Time;durP1;ratioP1;P1;durP2;ratioP2;P2;SDS_P1;SDS_P2;PMS_P1;PMS_P2;Temp;Humidity;BMP_temperature;BMP_pressure;BME280_temperature;BME280_humidity;BME280_pressure;Samples;Min_cycle;Max_cycle;Signal;HPM_P1;HPM_P2
2022/08/27 00:00:09;;;;;;;16.20;8.30;;;;;;;17.93;59.03;98390.82;88909;1277;25455;-78
2022/08/27 00:02:34;;;;;;;17.90;8.20;;;;;;;17.85;58.98;98394.64;88690;1276;25396;-79
2022/08/27 00:04:37;;;;;;;16.80;8.20;;;;;;;17.80;58.91;98396.50;88973;1274;22691;-79
2022/08/27 00:06:39;;;;;;;24.80;7.60;;;;;;;17.76;59.13;98391.71;88677;1279;99450;-79
2022/08/27 00:08:43;;;;;;;15.10;7.80;;;;;;;17.72;59.26;98391.22;88915;1276;22785;-79
2022/08/27 00:10:44;;;;;;;14.80;7.10;;;;;;;17.73;59.39;98391.66;88705;1276;27178;-79
2022/08/27 00:12:55;;;;;;;16.50;7.90;;;;;;;17.69;59.56;98395.50;88586;1276;98483;-78
2022/08/27 00:14:59;;;;;;;20.80;8.30;;;;;;;17.64;59.63;98391.02;88780;1277;22645;-79
2022/08/27 00:17:12;;;;;;;26.20;7.80;;;;;;;17.60;59.98;98390.09;88859;1274;22737;-78
2022/08/27 00:19:21;;;;;;;20.90;7.60;;;;;;;17.58;60.05;98385.64;88731;1277;98892;-79
2022/08/27 00:21:34;;;;;;;21.90;7.80;;;;;;;17.57;60.26;98384.72;88720;1277;22684;-77
2022/08/27 00:23:38;;;;;;;17.90;7.80;;;;;;;17.55;60.31;98384.86;88703;1276;23432;-77
2022/08/27 00:25:39;;;;;;;19.20;8.00;;;;;;;17.52;60.50;98386.69;88730;1276;99757;-79
2022/08/27 00:27:43;;;;;;;19.30;7.50;;;;;;;17.48;60.59;98384.32;88912;1276;22852;-79
2022/08/27 00:29:46;;;;;;;18.00;7.90;;;;;;;17.43;60.62;98387.10;89245;1276;22793;-79
2022/08/27 00:31:57;;;;;;;13.60;7.50;;;;;;;17.38;60.73;98384.13;89057;1277;98984;-78
2022/08/27 00:34:10;;;;;;;20.10;8.00;;;;;;;17.35;60.77;98384.24;88773;1276;22809;-79
2022/08/27 00:36:13;;;;;;;25.80;7.80;;;;;;;17.31;60.86;98384.56;88866;1274;22643;-79
2022/08/27 00:38:19;;;;;;;9.00;7.20;;;;;;;17.24;60.84;98382.02;88510;1276;98788;-78
2022/08/27 00:40:23;;;;;;;16.10;7.90;;;;;;;17.21;60.97;98387.34;88906;1276;25027;-79
2022/08/27 00:42:44;;;;;;;;;;;;;;;;;;;;;
2022/08/27 00:44:47;;;;;;;10.50;7.70;;;;;;;17.13;61.24;98390.20;89380;1274;25441;-79
2022/08/27 00:47:00;;;;;;;11.90;7.40;;;;;;;17.07;61.44;98389.41;88804;1276;22587;-78
2022/08/27 00:49:18;;;;;;;11.70;8.10;;;;;;;17.02;61.45;98391.09;88651;1278;98994;-78
2022/08/27 00:51:21;;;;;;;21.60;8.30;;;;;;;16.98;61.53;98392.54;88792;1276;25948;-79
2022/08/27 00:53:28;;;;;;;19.90;7.50;;;;;;;16.94;61.53;98393.55;89289;1276;22582;-79
2022/08/27 00:55:37;;;;;;;10.70;7.90;;;;;;;16.90;61.74;98392.87;89334;1276;98976;-79
2022/08/27 00:57:44;;;;;;;14.60;7.00;;;;;;;16.85;61.84;98395.52;89331;1274;22577;-79
2022/08/27 00:59:46;;;;;;;10.90;7.40;;;;;;;16.77;61.93;98396.52;89138;1276;23435;-79
2022/08/27 01:04:09;;;;;;;16.50;7.90;;;;;;;16.68;62.25;98394.94;88789;1275;22584;-78
2022/08/27 01:06:17;;;;;;;15.50;7.70;;;;;;;16.65;62.39;98390.75;88917;1276;22599;-76
2022/08/27 01:08:26;;;;;;;10.00;7.80;;;;;;;16.63;62.38;98390.61;88743;1279;98799;-79
2022/08/27 01:10:29;;;;;;;18.80;7.40;;;;;;;16.62;62.47;98390.33;88720;1275;23883;-79
2022/08/27 01:12:33;;;;;;;21.20;7.80;;;;;;;16.59;62.48;98395.14;88561;1278;99323;-79
2022/08/27 01:14:36;;;;;;;34.50;8.00;;;;;;;16.55;62.46;98394.41;89148;1279;22621;-80
2022/08/27 01:16:53;;;;;;;9.40;7.40;;;;;;;16.55;62.61;98393.25;88744;1274;25678;-78
2022/08/27 01:19:15;;;;;;;12.60;7.60;;;;;;;16.53;62.70;98393.53;88757;1276;98965;-78
2022/08/27 01:21:56;;;;;;;43.50;8.90;;;;;;;16.52;62.80;98392.92;89333;1276;22626;-79
2022/08/27 01:24:25;;;;;;;17.80;8.00;;;;;;;16.52;62.84;98396.10;89236;1276;22670;-79
2022/08/27 01:26:29;;;;;;;20.60;8.20;;;;;;;16.52;62.91;98392.02;88666;1275;22668;-78
2022/08/27 01:28:37;;;;;;;18.10;8.30;;;;;;;16.51;62.97;98393.70;88673;1277;22666;-78
2022/08/27 01:30:44;;;;;;;12.70;8.10;;;;;;;16.50;63.01;98386.86;88714;1276;98252;-78
2022/08/27 01:32:47;;;;;;;20.10;7.60;;;;;;;16.48;63.05;98385.58;88756;1278;25247;-79
2022/08/27 01:34:57;;;;;;;18.70;8.00;;;;;;;16.49;62.98;98387.11;88478;1280;25326;-78
2022/08/27 01:36:59;;;;;;;23.10;8.00;;;;;;;16.48;63.04;98385.75;89256;1276;99348;-80
2022/08/27 01:39:05;;;;;;;19.40;8.50;;;;;;;16.46;62.93;98384.16;88886;1276;25390;-79
2022/08/27 01:41:24;;;;;;;13.30;8.20;;;;;;;16.43;63.05;98384.38;88679;1278;25466;-78
2022/08/27 01:43:39;;;;;;;9.40;7.20;;;;;;;16.41;63.14;98380.52;89071;1274;99134;-78
2022/08/27 01:45:50;;;;;;;15.20;7.50;;;;;;;16.37;63.25;98378.56;88771;1276;23666;-79
2022/08/27 01:47:56;;;;;;;15.50;7.70;;;;;;;16.33;63.24;98380.77;88740;1276;23106;-79
2022/08/27 01:50:10;;;;;;;29.80;8.20;;;;;;;16.32;63.26;98380.17;88841;1276;99355;-79
2022/08/27 01:52:23;;;;;;;9.50;7.00;;;;;;;16.30;63.33;98377.70;88868;1279;22577;-79
2022/08/27 01:54:25;;;;;;;10.60;7.40;;;;;;;16.32;63.47;98381.57;88983;1276;99347;-79
2022/08/27 01:56:31;;;;;;;14.50;7.20;;;;;;;16.33;63.40;98381.35;88852;1278;22682;-79
2022/08/27 01:58:37;;;;;;;12.80;7.40;;;;;;;16.34;63.51;98382.70;88809;1277;22807;-80
2022/08/27 02:00:43;;;;;;;16.60;7.70;;;;;;;16.33;63.52;98380.23;89202;1276;98629;-80
2022/08/27 02:03:19;;;;;;;16.00;8.10;;;;;;;16.33;63.61;98378.16;88978;1276;23525;-77
2022/08/27 02:06:01;;;;;;;17.00;8.20;;;;;;;16.31;63.62;98378.33;89331;1276;23341;-81
2022/08/27 02:08:44;;;;;;;9.30;7.20;;;;;;;16.23;63.60;98373.81;88871;1274;22642;-79
2022/08/27 02:10:48;;;;;;;15.00;7.50;;;;;;;16.17;63.65;98374.45;89005;1276;22801;-79
2022/08/27 02:13:39;;;;;;;12.20;7.30;;;;;;;16.11;63.76;98373.33;89551;1276;98042;-80
2022/08/27 02:15:45;;;;;;;16.80;7.90;;;;;;;16.04;63.79;98371.81;88807;1279;22562;-78
2022/08/27 02:17:47;;;;;;;12.50;7.00;;;;;;;16.03;63.86;98381.05;88719;1282;22695;-78
2022/08/27 02:19:50;;;;;;;17.40;7.00;;;;;;;16.01;63.86;98381.27;88775;1280;99790;-79
2022/08/27 02:22:15;;;;;;;12.30;7.40;;;;;;;15.99;64.01;98382.79;89060;1279;24081;-79
2022/08/27 02:24:37;;;;;;;20.00;7.90;;;;;;;15.97;64.16;98387.61;89224;1279;22524;-79
2022/08/27 02:26:42;;;;;;;15.00;7.60;;;;;;;15.95;64.30;98384.05;89152;1280;22553;-79
2022/08/27 02:28:44;;;;;;;14.10;8.70;;;;;;;15.96;64.38;98384.83;89035;1282;23080;-79
2022/08/27 02:30:46;;;;;;;21.20;8.10;;;;;;;15.96;64.44;98387.34;88752;1284;98629;-79
2022/08/27 02:32:48;;;;;;;14.80;8.20;;;;;;;15.96;64.40;98385.70;88848;1282;22622;-79
2022/08/27 02:34:53;;;;;;;13.60;7.90;;;;;;;15.96;64.44;98386.08;88891;1285;22878;-79
2022/08/27 02:36:58;;;;;;;15.80;8.60;;;;;;;15.96;64.58;98386.42;88861;1280;98116;-79
2022/08/27 02:39:21;;;;;;;13.90;8.00;;;;;;;15.96;64.64;98386.27;89251;1280;24442;-79
2022/08/27 02:41:32;;;;;;;27.10;8.60;;;;;;;15.94;64.86;98386.71;88910;1282;22657;-79
2022/08/27 02:43:34;;;;;;;;;;;;;;;15.92;64.88;98386.55;88778;1282;98020;-78
2022/08/27 02:45:38;;;;;;;11.60;7.20;;;;;;;15.88;64.97;98378.96;88619;1281;24413;-80
2022/08/27 02:47:49;;;;;;;10.90;7.60;;;;;;;15.84;65.13;98380.81;88401;1282;26049;-79
2022/08/27 02:49:52;;;;;;;23.50;8.60;;;;;;;15.81;65.07;98378.73;88926;1282;99242;-79
2022/08/27 02:51:56;;;;;;;16.60;8.70;;;;;;;15.78;65.15;98380.57;88864;1284;22680;-79
2022/08/27 02:54:18;;;;;;;21.10;8.80;;;;;;;15.75;65.33;98379.88;89024;1276;25956;-79
2022/08/27 02:56:21;;;;;;;11.50;7.50;;;;;;;15.72;65.30;98374.79;88932;1276;97864;-80
2022/08/27 02:58:27;;;;;;;19.50;8.20;;;;;;;15.68;65.37;98371.92;88743;1278;23401;-79
2022/08/27 03:00:32;;;;;;;16.30;7.90;;;;;;;15.71;65.18;98374.89;88750;1276;99490;-78
2022/08/27 03:02:57;;;;;;;19.30;8.20;;;;;;;15.71;65.39;98375.23;88773;1276;22579;-78
2022/08/27 03:05:13;;;;;;;15.10;8.20;;;;;;;15.68;65.44;98374.80;89084;1274;25383;-79
2022/08/27 03:07:18;;;;;;;13.80;7.70;;;;;;;15.62;65.52;98372.96;89309;1276;99329;-78
2022/08/27 03:09:26;;;;;;;16.10;8.00;;;;;;;15.59;65.60;98370.38;88931;1275;22626;-79
2022/08/27 03:11:33;;;;;;;15.50;8.30;;;;;;;15.55;65.57;98376.16;89250;1276;23438;-80
2022/08/27 03:13:41;;;;;;;25.30;8.60;;;;;;;15.53;65.58;98382.35;89027;1275;99138;-80
2022/08/27 03:15:52;;;;;;;19.10;8.10;;;;;;;15.48;65.59;98380.23;89501;1276;22520;-80
2022/08/27 03:18:22;;;;;;;12.60;7.60;;;;;;;15.46;65.64;98379.88;89254;1278;22643;-79
2022/08/27 03:20:25;;;;;;;20.00;7.60;;;;;;;15.44;65.80;98379.33;88854;1276;22601;-78
2022/08/27 03:22:29;;;;;;;13.30;7.90;;;;;;;15.41;65.79;98370.30;88774;1278;23576;-80
2022/08/27 03:25:08;;;;;;;15.70;8.00;;;;;;;15.41;65.83;98371.59;89085;1277;99491;-79
2022/08/27 03:27:15;;;;;;;14.80;7.80;;;;;;;15.40;65.87;98370.77;88908;1274;22734;-78
2022/08/27 03:29:58;;;;;;;16.10;8.50;;;;;;;15.40;65.93;98372.04;88730;1276;22569;-79
2022/08/27 03:32:25;;;;;;;15.30;7.80;;;;;;;15.39;66.09;98369.25;89042;1276;99248;-79
2022/08/27 03:34:42;;;;;;;12.40;8.30;;;;;;;15.40;66.14;98371.34;88776;1276;24274;-79
2022/08/27 03:36:47;;;;;;;15.80;9.30;;;;;;;15.41;66.15;98373.84;88707;1278;99177;-79
2022/08/27 03:38:59;;;;;;;15.90;8.50;;;;;;;15.42;65.98;98369.52;89216;1276;22731;-80
2022/08/27 03:41:04;;;;;;;14.20;7.70;;;;;;;15.43;66.19;98369.42;89130;1279;22617;-79
2022/08/27 03:43:06;;;;;;;18.60;8.00;;;;;;;15.43;66.17;98366.11;89097;1277;99406;-79
2022/08/27 03:45:09;;;;;;;13.10;8.10;;;;;;;15.42;66.08;98366.48;89274;1276;22615;-80
2022/08/27 03:47:21;;;;;;;11.30;9.20;;;;;;;15.42;66.08;98365.25;89285;1278;22762;-79
2022/08/27 03:49:30;;;;;;;26.70;9.10;;;;;;;15.43;66.13;98368.56;89020;1278;99204;-78
2022/08/27 03:52:23;;;;;;;15.30;8.90;;;;;;;15.45;66.17;98368.91;88970;1276;22664;-79
2022/08/27 03:55:02;;;;;;;14.60;8.00;;;;;;;15.49;66.33;98372.16;88638;1282;99423;-79
2022/08/27 03:57:36;;;;;;;;;;;;;;;;;;;;;
2022/08/27 04:00:36;;;;;;;20.30;8.50;;;;;;;15.52;66.29;98360.26;88612;1282;22601;-81
2022/08/27 04:02:42;;;;;;;13.40;9.30;;;;;;;15.59;66.29;98363.30;88600;1281;99248;-80
2022/08/27 04:04:52;;;;;;;10.70;9.30;;;;;;;15.63;66.34;98366.66;88654;1282;22550;-79
2022/08/27 04:07:55;;;;;;;18.30;9.00;;;;;;;15.64;66.18;98363.56;88238;1282;100198;-79
2022/08/27 04:10:45;;;;;;;;;;;;;;;;;;;;;
2022/08/27 04:13:50;;;;;;;12.80;9.40;;;;;;;15.71;66.24;98368.34;88857;1281;99135;-78
2022/08/27 04:16:09;;;;;;;23.10;9.00;;;;;;;15.73;66.34;98370.48;89074;1281;22833;-78
2022/08/27 04:18:33;;;;;;;;;;;;;;;;;;;;;
2022/08/27 04:21:35;;;;;;;;;;;;;;;;;;;;;
2022/08/27 04:24:16;;;;;;;14.80;9.40;;;;;;;15.78;66.75;98372.02;88266;1288;22620;-79
2022/08/27 04:26:44;;;;;;;13.20;10.00;;;;;;;15.81;66.76;98373.92;87956;1291;99458;-79
2022/08/27 04:29:18;;;;;;;14.70;8.90;;;;;;;15.83;66.63;98375.17;87345;1294;22861;-78
2022/08/27 04:32:08;;;;;;;;;;;;;;;;;;;;;
2022/08/27 04:34:19;;;;;;;18.70;9.60;;;;;;;15.91;66.66;98371.38;87228;1297;22582;-79
2022/08/27 04:37:39;;;;;;;;;;;;;;;;;;;;;
2022/08/27 04:43:27;;;;;;;34.80;9.80;;;;;;;15.97;66.75;98362.58;86545;1306;99281;-78
2022/08/27 04:46:34;;;;;;;31.20;9.60;;;;;;;15.97;66.98;98356.21;86503;1308;22652;-79
2022/08/27 04:49:16;;;;;;;;;;;;;;;;;;;;;
2022/08/27 04:52:07;;;;;;;18.90;8.90;;;;;;;16.06;67.12;98357.23;85902;1315;22537;-78
2022/08/27 04:54:51;;;;;;;20.50;9.30;;;;;;;16.13;66.97;98358.31;86311;1315;22939;-79
2022/08/27 04:57:32;;;;;;;16.50;10.70;;;;;;;16.20;66.93;98356.14;86476;1313;25454;-79
2022/08/27 05:00:22;;;;;;;14.90;8.80;;;;;;;16.27;67.35;98359.45;86288;1315;22613;-79
2022/08/27 05:02:32;;;;;;;22.70;10.40;;;;;;;16.33;67.43;98357.41;85985;1318;98199;-80
2022/08/27 05:05:29;;;;;;;;;;;;;;;;;;;;;
2022/08/27 05:08:09;;;;;;;;;;;;;;;;;;;;;
2022/08/27 05:11:05;;;;;;;15.90;9.40;;;;;;;16.56;67.43;98365.14;86092;1315;22789;-80
2022/08/27 05:13:22;;;;;;;13.20;8.40;;;;;;;16.62;67.40;98361.39;85866;1321;100097;-79
2022/08/27 05:15:31;;;;;;;34.90;9.60;;;;;;;16.66;67.35;98359.77;85883;1319;24356;-79
2022/08/27 05:17:51;;;;;;;27.40;9.50;;;;;;;16.73;67.20;98362.25;86403;1314;22557;-79
2022/08/27 05:20:28;;;;;;;;;;;;;;;;;;;;;
2022/08/27 05:22:43;;;;;;;21.10;9.80;;;;;;;16.83;67.53;98365.00;86579;1312;22795;-78
2022/08/27 05:25:36;;;;;;;;;;;;;;;;;;;;;
2022/08/27 05:28:20;;;;;;;17.70;9.30;;;;;;;16.98;67.48;98371.33;87342;1299;22588;-79
2022/08/27 05:31:14;;;;;;;;;;;;;;;;;;;;;
2022/08/27 05:33:26;;;;;;;29.80;10.30;;;;;;;17.15;67.43;98375.59;87831;1294;23013;-79
2022/08/27 05:36:02;;;;;;;30.00;10.10;;;;;;;17.22;67.48;98370.95;87937;1294;22542;-79
2022/08/27 05:38:12;;;;;;;23.30;10.10;;;;;;;17.30;67.34;98367.81;88687;1297;98255;-80
2022/08/27 05:41:07;;;;;;;13.40;9.70;;;;;;;17.38;67.29;98373.17;88324;1291;22607;-79
2022/08/27 05:43:40;;;;;;;;;;;;;;;;;;;;;
2022/08/27 05:46:38;;;;;;;14.40;9.90;;;;;;;17.60;67.29;98363.08;89085;1283;22773;-79
2022/08/27 05:48:51;;;;;;;25.90;10.50;;;;;;;17.71;67.43;98355.89;89302;1282;99902;-80
2022/08/27 05:51:27;;;;;;;20.20;10.50;;;;;;;17.80;67.34;98352.80;89615;1276;24201;-81
2022/08/27 05:54:17;;;;;;;23.50;9.90;;;;;;;17.89;67.35;98353.80;89730;1276;22574;-80
2022/08/27 05:56:44;;;;;;;;;;;;;;;;;;;;;
2022/08/27 06:02:20;;;;;;;21.50;9.70;;;;;;;18.20;67.28;98364.25;89484;1276;99463;-80
2022/08/27 06:05:13;;;;;;;14.90;10.90;;;;;;;18.30;67.15;98364.63;89613;1276;22528;-81
2022/08/27 06:07:56;;;;;;;25.30;12.00;;;;;;;18.40;67.15;98364.36;89501;1274;99318;-80
2022/08/27 06:10:51;;;;;;;21.00;11.20;;;;;;;18.50;66.81;98365.30;89675;1274;22591;-81
2022/08/27 06:13:14;;;;;;;24.80;10.20;;;;;;;18.61;66.84;98365.16;89566;1274;99587;-80
2022/08/27 06:15:55;;;;;;;;;;;;;;;;;;;;;
2022/08/27 06:18:33;;;;;;;32.00;11.40;;;;;;;18.90;66.56;98363.10;89393;1276;26242;-81
2022/08/27 06:21:17;;;;;;;29.80;11.00;;;;;;;19.06;66.57;98366.12;89513;1276;22689;-80
2022/08/27 06:24:11;;;;;;;18.00;10.80;;;;;;;19.25;66.70;98375.05;89086;1282;22583;-82
2022/08/27 06:26:38;;;;;;;15.70;10.40;;;;;;;19.38;66.47;98382.80;89036;1279;99394;-81
2022/08/27 06:29:32;;;;;;;15.90;10.70;;;;;;;19.50;66.30;98387.61;89189;1280;25441;-79
2022/08/27 06:32:14;;;;;;;27.00;11.30;;;;;;;19.60;66.29;98388.98;89336;1279;99402;-80
2022/08/27 06:34:38;;;;;;;;;;;;;;;;;;;;;
2022/08/27 06:37:23;;;;;;;25.60;11.40;;;;;;;19.80;65.96;98390.91;89155;1279;99512;-81
2022/08/27 06:39:30;;;;;;;23.70;11.90;;;;;;;19.89;65.95;98389.98;88201;1279;22722;-77
2022/08/27 06:41:54;;;;;;;23.60;10.30;;;;;;;20.00;65.73;98386.62;88264;1279;22735;-78
2022/08/27 06:43:57;;;;;;;21.10;11.60;;;;;;;20.08;65.44;98385.17;87858;1282;99340;-77
2022/08/27 06:46:23;;;;;;;25.40;11.00;;;;;;;20.15;65.53;98383.42;88070;1281;22627;-77
2022/08/27 06:48:25;;;;;;;26.70;11.50;;;;;;;20.28;65.40;98381.28;88258;1279;22625;-78
2022/08/27 06:50:28;;;;;;;24.60;11.20;;;;;;;20.35;65.19;98381.10;87929;1282;99138;-76
2022/08/27 06:52:30;;;;;;;26.80;11.60;;;;;;;20.40;65.16;98380.59;87920;1282;22574;-77
2022/08/27 06:54:57;;;;;;;;;;;;;;;;;;;;;
2022/08/27 06:57:08;;;;;;;20.90;11.10;;;;;;;20.55;64.97;98387.66;88221;1280;22639;-76
2022/08/27 06:59:16;;;;;;;23.10;11.40;;;;;;;20.63;64.93;98392.48;88198;1279;24239;-77
2022/08/27 07:01:29;;;;;;;16.90;11.20;;;;;;;20.68;64.97;98392.13;88366;1279;99467;-77
2022/08/27 07:03:31;;;;;;;19.40;11.70;;;;;;;20.78;64.91;98393.52;88423;1276;22712;-77
2022/08/27 07:05:36;;;;;;;24.00;11.80;;;;;;;20.87;64.67;98388.72;88420;1276;24285;-76
2022/08/27 07:07:38;;;;;;;28.50;11.70;;;;;;;20.94;64.64;98385.52;88429;1276;99505;-77
2022/08/27 07:09:43;;;;;;;23.00;12.70;;;;;;;21.00;64.49;98390.77;88341;1276;26557;-77
2022/08/27 07:11:45;;;;;;;15.30;10.20;;;;;;;21.07;64.46;98388.98;88414;1279;23423;-78
2022/08/27 07:13:48;;;;;;;21.30;11.70;;;;;;;21.17;64.34;98389.06;88331;1276;99273;-76
2022/08/27 07:15:50;;;;;;;23.90;11.20;;;;;;;21.23;63.80;98385.91;88426;1276;22714;-78
2022/08/27 07:17:59;;;;;;;21.90;12.10;;;;;;;21.28;63.55;98386.89;88485;1276;25391;-77
2022/08/27 07:20:04;;;;;;;31.90;11.80;;;;;;;21.28;63.78;98378.61;88259;1279;99369;-77
2022/08/27 07:22:12;;;;;;;28.10;11.70;;;;;;;21.39;63.70;98386.29;88941;1276;22584;-77
2022/08/27 07:24:16;;;;;;;31.20;11.90;;;;;;;21.49;63.85;98388.51;88761;1276;22572;-78
2022/08/27 07:26:32;;;;;;;20.60;12.00;;;;;;;21.61;63.83;98392.15;88560;1276;99454;-76
2022/08/27 07:28:36;;;;;;;16.00;11.50;;;;;;;21.68;63.58;98388.30;88362;1276;22788;-77
2022/08/27 07:30:44;;;;;;;20.50;11.90;;;;;;;21.75;63.54;98386.77;88252;1280;99857;-77
2022/08/27 07:32:49;;;;;;;38.60;12.20;;;;;;;21.81;63.37;98391.29;88644;1277;22682;-78
2022/08/27 07:34:51;;;;;;;31.60;12.30;;;;;;;21.89;63.20;98396.34;88821;1276;22862;-76
2022/08/27 07:36:53;;;;;;;45.90;11.40;;;;;;;21.94;63.22;98397.95;88625;1276;99536;-76
2022/08/27 07:38:55;;;;;;;24.40;12.30;;;;;;;22.06;63.13;98393.34;88323;1279;22720;-77
2022/08/27 07:41:23;;;;;;;33.90;11.90;;;;;;;22.13;62.69;98393.66;88564;1276;22877;-79
2022/08/27 07:45:49;;;;;;;19.60;12.00;;;;;;;22.28;62.80;98397.63;88462;1275;25493;-77
2022/08/27 07:47:52;;;;;;;18.40;11.30;;;;;;;22.33;62.74;98397.36;88465;1276;22577;-76
2022/08/27 07:50:27;;;;;;;22.20;11.40;;;;;;;22.39;62.62;98401.16;88415;1277;99391;-78
2022/08/27 07:52:58;;;;;;;21.30;10.70;;;;;;;22.44;62.68;98405.61;88436;1276;22576;-77
2022/08/27 07:55:32;;;;;;;24.30;11.40;;;;;;;22.53;62.87;98414.75;88428;1275;99447;-77
2022/08/27 07:57:37;;;;;;;28.60;11.70;;;;;;;22.66;62.66;98415.48;88557;1274;22621;-78
2022/08/27 07:59:47;;;;;;;25.30;10.80;;;;;;;22.69;62.44;98416.48;88463;1276;24263;-77
2022/08/27 08:02:14;;;;;;;19.30;10.10;;;;;;;22.72;62.74;98417.38;88427;1275;99777;-78
2022/08/27 08:04:15;;;;;;;16.40;10.50;;;;;;;22.76;62.50;98418.02;88451;1276;25474;-77
2022/08/27 08:06:33;;;;;;;26.00;11.40;;;;;;;22.78;62.40;98412.72;88426;1276;22583;-78
2022/08/27 08:08:36;;;;;;;;;;;;;;;22.83;62.27;98414.98;88666;1276;23431;-77
2022/08/27 08:10:50;;;;;;;20.50;12.00;;;;;;;22.84;62.31;98417.13;88459;1276;23228;-78
2022/08/27 08:13:21;;;;;;;21.90;11.10;;;;;;;22.94;62.40;98418.36;88350;1276;99660;-79
2022/08/27 08:15:23;;;;;;;;;;;;;;;23.00;62.33;98419.88;88613;1277;22562;-77
2022/08/27 08:17:33;;;;;;;18.20;10.80;;;;;;;23.08;62.24;98422.41;88461;1277;25198;-80
2022/08/27 08:19:55;;;;;;;22.40;10.70;;;;;;;23.15;62.05;98421.84;88373;1276;99373;-77
2022/08/27 08:22:09;;;;;;;25.70;12.50;;;;;;;23.22;62.02;98424.16;88720;1275;23993;-78
2022/08/27 08:24:11;;;;;;;27.80;10.70;;;;;;;23.25;61.82;98427.91;88562;1276;25834;-78
2022/08/27 08:26:17;;;;;;;31.90;10.20;;;;;;;23.30;61.84;98428.52;88392;1276;99526;-78
2022/08/27 08:28:18;;;;;;;23.40;10.70;;;;;;;23.35;61.67;98430.48;88517;1273;22716;-78
2022/08/27 08:30:21;;;;;;;20.10;10.30;;;;;;;23.42;61.56;98432.03;88463;1276;22637;-78
2022/08/27 08:32:30;;;;;;;22.60;10.30;;;;;;;23.52;61.51;98434.34;88312;1277;99383;-78
2022/08/27 08:34:34;;;;;;;20.10;9.20;;;;;;;23.63;61.74;98435.27;88471;1277;22512;-78
2022/08/27 08:36:36;;;;;;;20.90;10.00;;;;;;;23.83;61.83;98438.02;88459;1276;98232;-78
2022/08/27 08:38:40;;;;;;;22.30;10.80;;;;;;;24.00;61.44;98439.06;88611;1277;22714;-78
2022/08/27 08:41:02;;;;;;;37.10;11.30;;;;;;;24.12;61.24;98439.66;88582;1276;25267;-77
2022/08/27 08:43:59;;;;;;;15.60;10.50;;;;;;;24.21;60.89;98440.08;88410;1276;99327;-78
2022/08/27 08:46:38;;;;;;;32.70;10.80;;;;;;;24.31;60.77;98441.84;88361;1280;26087;-79
2022/08/27 08:49:04;;;;;;;20.10;10.70;;;;;;;24.38;60.34;98447.45;88192;1282;99565;-77
2022/08/27 08:51:28;;;;;;;30.00;10.70;;;;;;;24.47;60.31;98447.05;88694;1282;24607;-78
2022/08/27 08:54:11;;;;;;;27.60;10.80;;;;;;;24.63;60.47;98447.75;88172;1281;22674;-78
2022/08/27 08:56:22;;;;;;;15.80;10.30;;;;;;;24.74;60.01;98448.14;87856;1285;99543;-76
2022/08/27 08:58:46;;;;;;;29.10;11.50;;;;;;;24.76;59.98;98451.42;87762;1286;23537;-78
2022/08/27 09:01:09;;;;;;;;;;;;;;;;;;;;;
2022/08/27 09:03:47;;;;;;;21.60;10.90;;;;;;;25.02;60.14;98446.50;88047;1286;27327;-78
2022/08/27 09:06:05;;;;;;;17.90;11.00;;;;;;;25.15;60.21;98445.99;88017;1285;22570;-79
2022/08/27 09:08:15;;;;;;;21.20;10.80;;;;;;;25.22;59.63;98446.30;87852;1285;99338;-78
2022/08/27 09:11:19;;;;;;;12.00;9.50;;;;;;;25.24;59.61;98448.21;88021;1286;23222;-78
2022/08/27 09:14:07;;;;;;;18.30;9.40;;;;;;;25.27;59.39;98443.67;87947;1285;99153;-77
2022/08/27 09:16:13;;;;;;;19.50;9.90;;;;;;;25.36;59.47;98452.06;87927;1286;27140;-79
2022/08/27 09:18:16;;;;;;;23.10;10.10;;;;;;;25.42;59.29;98447.55;87810;1285;25891;-78
2022/08/27 09:20:41;;;;;;;26.90;9.60;;;;;;;25.52;59.43;98445.84;87779;1284;99414;-78
2022/08/27 09:23:36;;;;;;;22.40;8.80;;;;;;;25.67;59.38;98440.21;88245;1282;24230;-79
2022/08/27 09:25:49;;;;;;;19.10;8.80;;;;;;;25.90;59.12;98442.05;88324;1281;99150;-78
2022/08/27 09:27:54;;;;;;;19.90;8.80;;;;;;;25.93;58.59;98446.17;88208;1283;23085;-79
2022/08/27 09:29:56;;;;;;;22.70;7.80;;;;;;;25.95;58.44;98446.48;88470;1282;22538;-79
2022/08/27 09:32:11;;;;;;;15.90;7.90;;;;;;;25.97;58.32;98446.69;88128;1282;99176;-79
2022/08/27 09:34:44;;;;;;;20.60;8.00;;;;;;;26.03;58.53;98443.89;87288;1277;1721802;-78
2022/08/27 09:37:01;;;;;;;25.20;7.50;;;;;;;26.16;58.17;98446.84;88593;1275;99649;-79
2022/08/27 09:39:06;;;;;;;12.80;7.30;;;;;;;26.25;58.24;98444.33;88714;1275;22561;-78
2022/08/27 09:41:24;;;;;;;22.80;6.90;;;;;;;26.34;57.78;98445.20;88462;1276;22567;-79
2022/08/27 09:43:31;;;;;;;29.00;6.50;;;;;;;26.50;57.72;98446.33;88481;1274;99081;-79
2022/08/27 09:45:34;;;;;;;10.10;6.40;;;;;;;26.58;57.16;98444.90;88584;1274;22596;-78
2022/08/27 09:48:30;;;;;;;13.20;6.10;;;;;;;26.60;56.80;98439.23;88788;1276;25486;-79
2022/08/27 09:50:47;;;;;;;19.80;5.80;;;;;;;26.65;56.32;98436.95;88428;1277;99003;-78
2022/08/27 09:52:59;;;;;;;12.50;5.90;;;;;;;26.74;56.45;98434.88;88577;1277;25946;-77
2022/08/27 09:55:13;;;;;;;10.40;6.70;;;;;;;26.84;56.12;98438.48;88678;1276;99395;-79
2022/08/27 09:57:32;;;;;;;25.00;5.90;;;;;;;26.97;55.90;98434.29;88696;1277;24607;-78
2022/08/27 09:59:55;;;;;;;14.00;5.60;;;;;;;27.18;55.79;98429.77;88694;1276;22595;-78
2022/08/27 10:02:48;;;;;;;11.40;5.70;;;;;;;27.47;55.71;98430.25;88765;1276;99092;-78
2022/08/27 10:05:03;;;;;;;16.20;5.10;;;;;;;27.82;55.08;98429.77;88494;1280;22594;-78
2022/08/27 10:07:41;;;;;;;10.40;5.30;;;;;;;27.97;54.77;98427.46;88411;1281;99266;-78
2022/08/27 10:10:10;;;;;;;;;;;;;;;;;;;;;
2022/08/27 10:12:29;;;;;;;13.60;5.10;;;;;;;28.37;54.02;98419.98;87741;1287;22725;-79
2022/08/27 10:15:17;;;;;;;18.60;5.70;;;;;;;28.46;53.83;98421.77;88158;1283;98084;-79
2022/08/27 10:17:48;;;;;;;12.00;5.00;;;;;;;28.50;53.13;98420.70;88483;1283;22509;-79
2022/08/27 10:20:22;;;;;;;20.50;5.40;;;;;;;28.56;53.10;98419.27;88209;1284;99398;-77
2022/08/27 10:22:32;;;;;;;17.50;4.90;;;;;;;28.59;52.64;98415.71;87984;1286;25531;-78
2022/08/27 10:25:24;;;;;;;13.30;5.20;;;;;;;28.61;52.69;98421.82;88052;1283;99386;-79
2022/08/27 10:27:49;;;;;;;17.60;4.70;;;;;;;28.64;52.40;98417.77;87429;1290;22909;-79
2022/08/27 10:30:13;;;;;;;18.60;5.30;;;;;;;28.63;51.19;98420.47;87563;1291;22680;-81
2022/08/27 10:32:59;;;;;;;9.90;4.80;;;;;;;28.57;51.46;98418.97;87465;1291;99898;-78
2022/08/27 10:35:27;;;;;;;13.10;4.30;;;;;;;28.57;52.02;98417.94;87293;1294;22620;-78
2022/08/27 10:38:02;;;;;;;8.70;4.70;;;;;;;28.64;51.80;98414.39;87285;1290;99402;-79
2022/08/27 10:40:13;;;;;;;8.40;5.20;;;;;;;28.70;51.65;98414.45;87345;1291;24289;-78
2022/08/27 10:42:46;;;;;;;14.10;4.60;;;;;;;28.71;51.04;98416.92;87825;1289;22558;-78
2022/08/27 10:45:17;;;;;;;7.10;4.40;;;;;;;28.76;50.92;98413.38;87644;1288;25298;-78
2022/08/27 10:47:49;;;;;;;22.50;4.80;;;;;;;28.84;50.72;98413.70;88049;1284;22561;-78
2022/08/27 10:50:59;;;;;;;;;;;;;;;;;;;;;
2022/08/27 10:53:29;;;;;;;12.10;4.00;;;;;;;28.86;50.48;98408.93;87591;1287;22648;-79
2022/08/27 10:56:08;;;;;;;15.30;4.80;;;;;;;28.91;49.80;98404.02;87607;1288;99284;-78
2022/08/27 10:58:28;;;;;;;9.80;4.60;;;;;;;28.85;49.50;98393.02;87724;1287;22849;-77
2022/08/27 11:00:42;;;;;;;10.50;4.60;;;;;;;28.93;49.48;98396.39;87437;1287;23024;-78
2022/08/27 11:02:52;;;;;;;25.60;4.90;;;;;;;29.01;49.20;98394.84;87530;1288;23391;-80
2022/08/27 11:05:08;;;;;;;20.40;6.70;;;;;;;29.07;48.86;98395.84;88133;1283;22565;-77
2022/08/27 11:07:26;;;;;;;;;;;;;;;29.10;49.28;98397.60;88016;1281;99371;-77
2022/08/27 11:09:46;;;;;;;21.70;4.60;;;;;;;29.10;48.65;98395.52;88361;1279;22644;-78
2022/08/27 11:11:53;;;;;;;;;;;;;;;29.13;48.86;98394.52;88255;1282;23785;-78
2022/08/27 11:13:57;;;;;;;23.90;5.10;;;;;;;29.18;48.70;98394.23;88493;1281;85671;-76
2022/08/27 11:16:04;;;;;;;30.30;5.00;;;;;;;29.24;48.59;98397.20;88426;1280;22748;-78
2022/08/27 11:18:47;;;;;;;11.90;4.60;;;;;;;29.28;48.25;98397.29;88242;1281;25628;-77
2022/08/27 11:21:03;;;;;;;26.10;5.30;;;;;;;29.35;48.42;98393.09;88343;1280;23704;-79
2022/08/27 11:23:21;;;;;;;16.00;5.50;;;;;;;29.42;48.50;98399.34;88670;1280;23617;-78
2022/08/27 11:25:38;;;;;;;22.50;5.60;;;;;;;29.48;48.66;98399.58;88386;1279;98129;-78